createdAt,value
2018-02-25T07:57:08.535Z,47.20
2018-02-25T07:57:42.538Z,47.20
2018-02-25T07:58:17.511Z,47.20
2018-02-25T07:58:51.184Z,47.00
2018-02-25T07:59:24.453Z,46.90
2018-02-25T07:59:57.673Z,46.80
2018-02-25T08:00:31.208Z,46.70
2018-02-25T08:01:04.435Z,46.50
2018-02-25T08:01:37.661Z,46.50
2018-02-25T08:06:13.229Z,45.50
2018-02-25T08:10:48.001Z,45.60
2018-02-25T08:15:21.277Z,45.60
2018-02-25T08:19:57.070Z,45.00
2018-02-25T08:24:30.362Z,44.90
2018-02-25T08:29:04.782Z,43.60
2018-02-25T08:33:38.958Z,43.20
2018-02-25T08:38:12.514Z,43.10
2018-02-25T08:42:47.583Z,43.90
2018-02-25T08:47:21.032Z,43.80
2018-02-25T08:51:55.491Z,41.60
2018-02-25T08:56:29.601Z,41.80
2018-02-25T09:01:02.871Z,41.70
2018-02-25T09:05:37.506Z,41.70
2018-02-25T09:10:10.821Z,41.70
2018-02-25T09:14:45.276Z,39.10
2018-02-25T09:19:19.068Z,39.00
2018-02-25T09:23:53.109Z,40.00
2018-02-25T09:28:27.158Z,39.30
2018-02-25T09:33:00.379Z,39.20
2018-02-25T09:37:33.804Z,39.10
2018-02-25T09:42:07.094Z,37.30
2018-02-25T09:46:40.319Z,37.60
2018-02-25T09:51:14.391Z,36.50
2018-02-25T09:55:48.421Z,33.50
2018-02-25T10:00:22.452Z,32.10
2018-02-25T10:04:57.117Z,33.20
2018-02-25T10:09:30.818Z,33.10
2018-02-25T10:14:04.233Z,34.40
2018-02-25T10:18:37.560Z,32.10
2018-02-25T10:23:15.881Z,30.60
2018-02-25T10:27:50.031Z,30.70
2018-02-25T10:32:25.146Z,30.60
2018-02-25T10:36:58.527Z,29.80
2018-02-25T10:41:32.978Z,30.20
2018-02-25T10:46:06.984Z,29.70
2018-02-25T10:50:40.234Z,29.70
2018-02-25T10:55:14.285Z,28.90
2018-02-25T10:59:47.860Z,28.40
2018-02-25T11:04:21.114Z,28.60
2018-02-25T11:08:54.423Z,28.10
2018-02-25T11:13:27.778Z,26.90
2018-02-25T11:18:01.809Z,26.90
2018-02-25T11:22:35.101Z,26.90
2018-02-25T11:27:08.325Z,27.20
2018-02-25T11:31:42.438Z,27.70
2018-02-25T11:36:16.403Z,27.70
2018-02-25T11:40:49.696Z,27.10
2018-02-25T11:45:24.673Z,27.00
2018-02-25T11:49:58.115Z,26.70
2018-02-25T11:54:33.061Z,26.40
2018-02-25T11:59:06.661Z,27.30
2018-02-25T12:03:40.687Z,28.00
2018-02-25T12:08:14.328Z,27.90
2018-02-25T12:12:47.552Z,27.70
2018-02-25T12:17:21.887Z,28.70
2018-02-25T12:21:57.005Z,25.50
2018-02-25T12:26:30.450Z,25.40
2018-02-25T12:31:04.143Z,26.60
2018-02-25T12:35:37.404Z,26.50
2018-02-25T12:40:10.674Z,24.90
2018-02-25T12:44:45.692Z,26.40
2018-02-25T12:49:19.931Z,26.30
2018-02-25T12:53:53.233Z,26.50
2018-02-25T12:58:26.521Z,27.60
2018-02-25T13:02:59.755Z,26.00
2018-02-25T13:07:33.003Z,26.30
2018-02-25T13:12:07.015Z,26.30
2018-02-25T13:16:41.097Z,25.40
2018-02-25T13:21:14.373Z,25.30
2018-02-25T13:25:47.767Z,26.50
2018-02-25T13:30:21.739Z,26.70
2018-02-25T13:34:55.144Z,26.60
2018-02-25T13:39:28.572Z,26.10
2018-02-25T13:44:01.824Z,24.90
2018-02-25T13:48:35.824Z,25.40
2018-02-25T13:53:09.435Z,25.40
2018-02-25T13:57:42.731Z,25.40
2018-02-25T14:02:15.984Z,24.70
2018-02-25T14:06:50.308Z,24.50
2018-02-25T14:11:24.690Z,24.20
2018-02-25T14:15:58.704Z,24.20
2018-02-25T14:20:31.985Z,24.90
2018-02-25T14:25:06.035Z,25.40
2018-02-25T14:29:39.295Z,25.40
2018-02-25T14:34:13.336Z,26.70
2018-02-25T14:38:47.363Z,25.40
2018-02-25T14:43:21.348Z,26.50
2018-02-25T14:47:54.599Z,26.00
2018-02-25T14:52:28.603Z,26.70
2018-02-25T14:57:01.861Z,26.60
2018-02-25T15:01:35.119Z,27.10
2018-02-25T15:06:09.539Z,27.00
2018-02-25T15:10:42.892Z,27.00
2018-02-25T15:15:16.299Z,27.10
2018-02-25T15:19:51.074Z,27.10
2018-02-25T15:24:24.429Z,27.00
2018-02-25T15:28:57.652Z,26.60
2018-02-25T15:33:32.627Z,27.30
2018-02-25T15:38:05.899Z,27.30
2018-02-25T15:42:39.107Z,26.90
2018-02-25T15:47:12.375Z,26.80
2018-02-25T15:51:45.677Z,26.20
2018-02-25T15:56:18.971Z,26.40
2018-02-25T16:00:52.231Z,25.70
2018-02-25T16:05:25.475Z,25.40
2018-02-25T16:09:58.877Z,25.90
2018-02-25T16:14:32.906Z,28.70
2018-02-25T16:19:06.408Z,28.70
2018-02-25T16:23:40.503Z,29.90
2018-02-25T16:28:13.767Z,29.80
2018-02-25T16:32:47.712Z,30.10
2018-02-25T16:37:21.407Z,30.60
2018-02-25T16:41:54.738Z,31.00
2018-02-25T16:46:28.065Z,31.10
2018-02-25T16:51:01.769Z,31.20
2018-02-25T16:55:35.056Z,31.00
2018-02-25T17:00:08.361Z,31.10
2018-02-25T17:04:41.608Z,31.40
2018-02-25T17:09:16.201Z,31.50
2018-02-25T17:13:49.504Z,31.40
2018-02-25T17:18:23.543Z,31.40
2018-02-25T17:22:57.662Z,31.40
2018-02-25T17:27:31.000Z,31.60
2018-02-25T17:32:05.660Z,31.70
2018-02-25T17:36:38.952Z,32.20
2018-02-25T17:41:12.367Z,32.20
2018-02-25T17:45:45.661Z,32.30
2018-02-25T17:50:18.941Z,32.30
2018-02-25T17:54:54.313Z,32.60
2018-02-25T17:59:27.624Z,32.60
2018-02-25T18:04:00.896Z,32.80
2018-02-25T18:08:34.522Z,32.80
2018-02-25T18:13:09.677Z,33.00
2018-02-25T18:17:43.034Z,32.90
2018-02-25T18:22:16.416Z,33.20
2018-02-25T18:26:50.763Z,33.70
2018-02-25T18:31:24.052Z,33.00
2018-02-25T18:35:58.076Z,33.30
2018-02-25T18:40:32.912Z,33.50
2018-02-25T18:45:06.912Z,33.50
2018-02-25T18:49:42.118Z,33.70
2018-02-25T18:54:15.384Z,33.50
2018-02-25T18:58:48.871Z,34.10
2018-02-25T19:03:22.277Z,34.30
2018-02-25T19:07:55.656Z,34.10
2018-02-25T19:12:28.886Z,34.40
2018-02-25T19:17:02.512Z,34.50
2018-02-25T19:21:35.993Z,34.40
2018-02-25T19:26:09.564Z,34.80
2018-02-25T19:30:44.241Z,34.70
2018-02-25T19:35:19.744Z,35.00
2018-02-25T19:40:01.311Z,35.30
2018-02-25T19:44:37.204Z,35.30
2018-02-25T19:49:12.392Z,35.50
2018-02-25T19:53:46.144Z,35.40
2018-02-25T19:58:20.377Z,35.60
2018-02-25T20:02:53.786Z,35.50
2018-02-25T20:07:27.867Z,35.80
2018-02-25T20:12:01.107Z,35.80
2018-02-25T20:16:34.350Z,36.00
2018-02-25T20:21:07.625Z,35.80
2018-02-25T20:25:41.639Z,35.90
2018-02-25T20:30:14.952Z,35.90
2018-02-25T20:34:48.231Z,35.90
2018-02-25T20:39:21.605Z,36.20
2018-02-25T20:43:59.826Z,36.50
2018-02-25T20:48:33.172Z,36.40
2018-02-25T20:53:06.447Z,36.70
2018-02-25T20:57:39.838Z,36.80
2018-02-25T21:02:13.874Z,36.90
2018-02-25T21:06:47.919Z,36.80
2018-02-25T21:11:21.309Z,36.80
2018-02-25T21:15:56.065Z,37.30
2018-02-25T21:20:29.448Z,37.20
2018-02-25T21:25:03.108Z,37.40
2018-02-25T21:29:37.132Z,37.40
2018-02-25T21:34:10.992Z,37.40
2018-02-25T21:38:45.049Z,37.70
2018-02-25T21:43:19.079Z,37.60
2018-02-25T21:47:53.104Z,38.30
2018-02-25T21:52:27.141Z,38.80
2018-02-25T21:57:05.993Z,38.70
2018-02-25T22:01:44.971Z,38.80
2018-02-25T22:06:18.255Z,38.80
2018-02-25T22:10:51.533Z,38.90
2018-02-25T22:15:25.105Z,39.20
2018-02-25T22:19:58.679Z,39.40
2018-02-25T22:24:31.982Z,39.50
2018-02-25T22:29:05.244Z,40.30
2018-02-25T22:33:39.264Z,40.50
2018-02-25T22:38:12.567Z,40.40
2018-02-25T22:42:46.460Z,40.20
2018-02-25T22:47:19.704Z,40.30
2018-02-25T22:51:52.969Z,40.40
2018-02-25T22:56:26.276Z,40.50
2018-02-25T23:00:59.566Z,40.10
2018-02-25T23:05:33.588Z,40.50
2018-02-25T23:10:07.603Z,40.70
2018-02-25T23:14:40.847Z,40.60
2018-02-25T23:19:14.438Z,40.60
2018-02-25T23:23:48.492Z,40.90
2018-02-25T23:28:22.373Z,40.80
2018-02-25T23:32:56.204Z,41.00
2018-02-25T23:37:30.290Z,41.00
2018-02-25T23:42:03.507Z,40.90
2018-02-25T23:46:36.753Z,41.80
2018-02-25T23:51:10.728Z,41.70
2018-02-25T23:55:43.992Z,41.70
